createdAt,value
2018-12-23T00:00:23.387Z,40.32
2018-12-23T00:02:55.223Z,39.92
2018-12-23T00:05:27.206Z,40.36
2018-12-23T00:07:59.131Z,40.74
2018-12-23T00:10:31.275Z,40.92
2018-12-23T00:13:03.378Z,40.83
2018-12-23T00:15:35.508Z,40.11
2018-12-23T00:18:07.619Z,40.38
2018-12-23T00:20:39.828Z,40.59
2018-12-23T00:23:11.886Z,40.42
2018-12-23T00:25:43.949Z,40.63
2018-12-23T00:28:15.980Z,39.97
2018-12-23T00:30:47.860Z,39.38
2018-12-23T00:33:20.072Z,39.21
2018-12-23T00:35:52.172Z,38.79
2018-12-23T00:38:24.220Z,38.89
2018-12-23T00:40:56.247Z,38.68
2018-12-23T00:43:28.191Z,38.11
2018-12-23T00:46:00.494Z,37.63
2018-12-23T00:48:32.523Z,37.73
2018-12-23T00:51:04.568Z,38.36
2018-12-23T00:53:36.592Z,36.56
2018-12-23T00:56:08.717Z,36.09
2018-12-23T00:58:40.625Z,35.48
2018-12-23T01:01:12.633Z,35.72
2018-12-23T01:03:44.817Z,34.31
2018-12-23T01:06:16.936Z,35.19
2018-12-23T01:08:48.895Z,34.57
2018-12-23T01:11:21.717Z,34.17
2018-12-23T01:13:53.892Z,33.72
2018-12-23T01:16:26.026Z,34.73
2018-12-23T01:18:58.020Z,34.83
2018-12-23T01:21:31.007Z,34.69
2018-12-23T01:24:03.050Z,35.34
2018-12-23T01:26:34.977Z,34.65
2018-12-23T01:29:07.049Z,35.01
2018-12-23T01:31:39.069Z,34.55
2018-12-23T01:34:11.059Z,34.53
2018-12-23T01:36:43.027Z,34.70
2018-12-23T01:39:15.110Z,34.09
2018-12-23T01:41:47.716Z,34.63
2018-12-23T01:44:19.679Z,34.29
2018-12-23T01:46:51.688Z,35.81
2018-12-23T01:49:23.673Z,33.55
2018-12-23T01:51:55.809Z,34.71
2018-12-23T01:54:27.892Z,33.58
2018-12-23T01:56:59.911Z,33.09
2018-12-23T01:59:32.478Z,32.60
2018-12-23T02:02:04.419Z,32.00
2018-12-23T02:04:36.594Z,33.33
2018-12-23T02:07:08.734Z,33.37
2018-12-23T02:09:40.814Z,32.80
2018-12-23T02:12:12.815Z,33.39
2018-12-23T02:14:44.721Z,32.18
2018-12-23T02:17:16.625Z,32.54
2018-12-23T02:19:48.578Z,32.30
2018-12-23T02:22:20.733Z,33.02
2018-12-23T02:24:52.865Z,33.03
2018-12-23T02:27:24.963Z,31.96
2018-12-23T02:29:57.248Z,32.47
2018-12-23T02:32:29.200Z,31.84
2018-12-23T02:35:01.346Z,33.58
2018-12-23T02:37:33.399Z,32.67
2018-12-23T02:40:05.420Z,32.28
2018-12-23T02:42:37.410Z,32.01
2018-12-23T02:45:09.303Z,31.41
2018-12-23T02:47:41.390Z,32.47
2018-12-23T02:50:13.404Z,31.00
2018-12-23T02:52:45.520Z,31.79
2018-12-23T02:55:17.681Z,32.70
2018-12-23T02:57:49.992Z,32.66
2018-12-23T03:00:22.288Z,32.27
2018-12-23T03:02:54.297Z,31.09
2018-12-23T03:05:27.122Z,31.13
2018-12-23T03:07:59.074Z,32.08
2018-12-23T03:10:31.014Z,30.11
2018-12-23T03:13:03.181Z,31.64
2018-12-23T03:15:35.261Z,30.54
2018-12-23T03:18:07.268Z,31.08
2018-12-23T03:20:40.194Z,30.48
2018-12-23T03:23:12.107Z,30.10
2018-12-23T03:25:44.155Z,31.61
2018-12-23T03:28:16.283Z,31.25
2018-12-23T03:30:48.398Z,31.20
2018-12-23T03:33:20.508Z,33.42
2018-12-23T03:35:52.506Z,31.65
2018-12-23T03:38:24.578Z,31.44
2018-12-23T03:40:56.610Z,32.02
2018-12-23T03:43:28.687Z,31.83
2018-12-23T03:46:00.769Z,31.09
2018-12-23T03:48:32.772Z,32.23
2018-12-23T03:51:04.816Z,30.38
2018-12-23T03:53:36.909Z,31.73
2018-12-23T03:56:08.879Z,31.60
2018-12-23T03:58:40.889Z,31.93
2018-12-23T04:01:12.867Z,31.58
2018-12-23T04:03:45.020Z,32.14
2018-12-23T04:06:24.399Z,31.90
2018-12-23T04:08:51.298Z,30.75
2018-12-23T04:11:23.548Z,31.84
2018-12-23T04:13:55.616Z,32.73
2018-12-23T04:16:27.543Z,32.75
2018-12-23T04:18:59.584Z,31.82
2018-12-23T04:21:31.638Z,31.70
2018-12-23T04:24:03.599Z,32.15
2018-12-23T04:26:35.499Z,33.39
2018-12-23T04:29:07.438Z,32.54
2018-12-23T04:31:39.233Z,33.31
2018-12-23T04:34:11.317Z,33.40
2018-12-23T04:36:44.026Z,32.50
2018-12-23T04:39:15.883Z,33.30
2018-12-23T04:41:47.933Z,32.44
2018-12-23T04:44:20.021Z,32.21
2018-12-23T04:46:52.042Z,32.88
2018-12-23T04:49:24.112Z,32.62
2018-12-23T04:51:56.422Z,33.31
2018-12-23T04:54:28.274Z,33.43
2018-12-23T04:57:00.263Z,33.51
2018-12-23T04:59:32.372Z,33.53
2018-12-23T05:02:04.369Z,34.01
2018-12-23T05:04:36.249Z,33.95
2018-12-23T05:07:08.217Z,34.36
2018-12-23T05:09:40.233Z,35.61
2018-12-23T05:12:12.097Z,34.85
2018-12-23T05:14:44.816Z,36.00
2018-12-23T05:17:17.027Z,35.65
2018-12-23T05:19:48.996Z,35.82
2018-12-23T05:22:21.080Z,36.69
2018-12-23T05:24:52.956Z,35.19
2018-12-23T05:27:24.907Z,35.43
2018-12-23T05:29:56.940Z,38.04
2018-12-23T05:32:28.919Z,35.70
2018-12-23T05:35:01.055Z,35.82
2018-12-23T05:37:33.045Z,34.65
2018-12-23T05:40:05.338Z,36.42
2018-12-23T05:42:37.521Z,34.48
2018-12-23T05:45:09.383Z,35.40
2018-12-23T05:47:41.424Z,35.51
2018-12-23T05:50:13.363Z,34.70
2018-12-23T05:52:45.373Z,34.26
2018-12-23T05:55:25.475Z,32.83
2018-12-23T05:57:57.339Z,34.09
2018-12-23T06:00:29.188Z,33.86
2018-12-23T06:03:01.316Z,33.17
2018-12-23T06:05:33.284Z,33.01
2018-12-23T06:08:05.430Z,33.89
2018-12-23T06:10:37.317Z,33.56
2018-12-23T06:13:09.207Z,35.01
2018-12-23T06:15:41.024Z,33.93
2018-12-23T06:18:12.927Z,34.18
2018-12-23T06:20:44.958Z,34.85
2018-12-23T06:23:17.011Z,34.25
2018-12-23T06:25:48.920Z,34.64
2018-12-23T06:28:20.938Z,35.57
2018-12-23T06:30:52.970Z,35.24
2018-12-23T06:33:24.893Z,35.78
2018-12-23T06:35:57.023Z,35.69
2018-12-23T06:38:29.350Z,36.11
2018-12-23T06:41:01.548Z,36.49
2018-12-23T06:43:33.531Z,35.76
2018-12-23T06:46:05.667Z,35.55
2018-12-23T06:48:37.687Z,36.80
2018-12-23T06:51:09.974Z,36.78
2018-12-23T06:53:42.079Z,35.99
2018-12-23T06:56:14.469Z,35.56
2018-12-23T06:58:46.418Z,37.44
2018-12-23T07:01:19.810Z,36.11
2018-12-23T07:03:51.877Z,37.42
2018-12-23T07:06:23.825Z,36.54
2018-12-23T07:08:55.910Z,36.76
2018-12-23T07:11:29.492Z,36.66
2018-12-23T07:14:01.377Z,37.02
2018-12-23T07:16:33.345Z,37.03
2018-12-23T07:19:05.300Z,37.52
2018-12-23T07:21:37.312Z,39.95
2018-12-23T07:24:09.399Z,38.57
2018-12-23T07:26:43.568Z,36.99
2018-12-23T07:29:15.595Z,36.87
2018-12-23T07:31:47.832Z,37.24
2018-12-23T07:34:20.093Z,37.58
2018-12-23T07:36:52.061Z,37.96
2018-12-23T07:39:24.437Z,37.88
2018-12-23T07:42:12.314Z,39.51
2018-12-23T07:44:50.864Z,37.58
2018-12-23T07:47:24.321Z,38.31
2018-12-23T07:49:58.098Z,37.93
2018-12-23T08:07:10.603Z,38.28
2018-12-23T08:09:43.788Z,39.52
2018-12-23T08:12:16.806Z,40.03
2018-12-23T08:14:50.141Z,40.18
2018-12-23T08:17:23.234Z,39.83
2018-12-23T08:19:56.273Z,40.72
2018-12-23T08:22:29.679Z,41.03
2018-12-23T08:25:02.829Z,41.20
2018-12-23T08:27:35.955Z,40.95
2018-12-23T08:30:09.652Z,41.29
2018-12-23T08:32:42.928Z,41.58
2018-12-23T08:35:15.965Z,42.39
2018-12-23T08:37:49.460Z,42.54
2018-12-23T08:40:22.665Z,41.81
2018-12-23T08:42:56.109Z,42.31
2018-12-23T08:45:29.119Z,42.72
2018-12-23T08:48:02.288Z,42.88
2018-12-23T08:50:35.757Z,42.69
2018-12-23T08:53:09.089Z,43.23
2018-12-23T08:55:43.582Z,43.17
2018-12-23T08:58:17.382Z,44.12
2018-12-23T09:00:51.749Z,43.61
2018-12-23T09:03:32.368Z,43.60
2018-12-23T09:06:13.057Z,44.78
2018-12-23T09:09:03.110Z,44.68
2018-12-23T09:11:42.852Z,45.24
2018-12-23T09:14:11.183Z,44.64
2018-12-23T09:16:44.251Z,44.42
2018-12-23T09:19:17.434Z,44.58
2018-12-23T09:21:50.732Z,45.31
2018-12-23T09:24:23.916Z,44.47
2018-12-23T09:26:56.994Z,44.96
2018-12-23T09:29:30.040Z,44.48
2018-12-23T09:32:03.347Z,44.12
2018-12-23T09:34:37.183Z,44.77
2018-12-23T09:37:10.387Z,45.65
2018-12-23T09:39:43.461Z,45.81
2018-12-23T09:42:16.585Z,45.34
2018-12-23T09:44:49.673Z,45.55
2018-12-23T09:47:22.732Z,46.08
2018-12-23T09:49:58.801Z,45.60
2018-12-23T09:52:31.928Z,45.58
2018-12-23T09:55:05.613Z,45.52
2018-12-23T09:57:38.708Z,45.83
2018-12-23T10:00:11.995Z,44.67
2018-12-23T10:02:45.476Z,45.94
2018-12-23T10:05:18.683Z,46.11
2018-12-23T10:07:52.019Z,46.92
2018-12-23T10:10:28.550Z,47.02
2018-12-23T10:13:00.063Z,46.74
2018-12-23T10:15:35.516Z,47.09
2018-12-23T10:18:08.819Z,47.36
2018-12-23T10:20:42.176Z,46.80
2018-12-23T10:23:15.795Z,46.55
2018-12-23T10:25:48.846Z,46.39
2018-12-23T10:28:22.040Z,46.61
2018-12-23T10:30:55.402Z,47.09
2018-12-23T10:33:28.509Z,47.64
2018-12-23T10:36:02.297Z,46.40
2018-12-23T10:38:35.528Z,46.65
2018-12-23T10:41:08.689Z,45.88
2018-12-23T10:43:41.793Z,46.35
2018-12-23T10:46:14.915Z,46.11
2018-12-23T10:48:48.336Z,47.13
2018-12-23T10:51:21.886Z,46.44
2018-12-23T10:53:56.803Z,46.67
2018-12-23T10:56:48.238Z,45.23
2018-12-23T10:59:21.505Z,45.38
2018-12-23T11:01:54.546Z,45.40
2018-12-23T11:04:28.091Z,45.37
2018-12-23T11:07:02.290Z,44.90
2018-12-23T11:09:35.465Z,45.57
2018-12-23T11:12:11.575Z,45.10
2018-12-23T11:14:46.138Z,45.05
2018-12-23T11:17:19.960Z,44.93
2018-12-23T11:19:54.791Z,43.71
2018-12-23T11:22:28.944Z,44.54
2018-12-23T11:25:02.596Z,45.26
2018-12-23T11:27:35.579Z,45.18
2018-12-23T11:30:10.013Z,45.51
2018-12-23T11:32:43.297Z,45.77
2018-12-23T11:35:16.623Z,46.22
2018-12-23T11:37:49.959Z,44.90
2018-12-23T11:40:23.476Z,45.23
2018-12-23T11:42:56.464Z,46.18
2018-12-23T11:45:30.130Z,45.94
2018-12-23T11:48:03.649Z,46.08
2018-12-23T11:50:36.953Z,46.72
2018-12-23T11:53:10.251Z,46.33
2018-12-23T11:55:43.585Z,46.58
2018-12-23T11:58:17.006Z,46.26
2018-12-23T12:00:50.490Z,46.26
2018-12-23T12:03:24.657Z,46.80
2018-12-23T12:05:58.536Z,47.02
2018-12-23T12:08:31.960Z,46.36
2018-12-23T12:11:06.381Z,46.17
2018-12-23T12:13:39.681Z,45.80
2018-12-23T12:16:12.849Z,45.30
2018-12-23T12:18:46.458Z,45.81
2018-12-23T12:21:19.869Z,45.62
2018-12-23T12:23:52.972Z,46.49
2018-12-23T12:26:26.247Z,46.54
2018-12-23T12:28:59.830Z,46.58
2018-12-23T12:31:33.159Z,46.75
2018-12-23T12:34:07.241Z,47.00
2018-12-23T12:36:40.430Z,47.36
2018-12-23T12:39:14.092Z,47.25
2018-12-23T12:41:47.494Z,47.51
2018-12-23T12:44:21.602Z,47.38
2018-12-23T12:46:54.930Z,47.67
2018-12-23T12:49:27.978Z,47.76
2018-12-23T12:52:01.108Z,48.00
2018-12-23T12:54:34.194Z,48.10
2018-12-23T12:57:07.488Z,47.58
2018-12-23T12:59:40.720Z,47.76
2018-12-23T13:02:14.134Z,48.31
2018-12-23T13:04:48.594Z,47.65
2018-12-23T13:07:21.845Z,48.12
2018-12-23T13:09:54.858Z,47.72
2018-12-23T13:12:27.966Z,48.48
2018-12-23T13:15:01.122Z,48.16
2018-12-23T13:17:34.426Z,47.42
2018-12-23T13:20:08.100Z,47.12
2018-12-23T13:22:44.581Z,47.53
2018-12-23T13:25:17.948Z,46.73
2018-12-23T13:27:51.697Z,46.77
2018-12-23T13:30:25.151Z,45.70
2018-12-23T13:32:59.519Z,45.34
2018-12-23T13:35:32.614Z,45.69
2018-12-23T13:38:06.492Z,45.51
2018-12-23T13:40:48.531Z,44.82
2018-12-23T13:43:51.951Z,46.60
2018-12-23T13:46:49.394Z,45.12
2018-12-23T13:52:39.885Z,45.05
2018-12-23T13:55:44.328Z,44.53
2018-12-23T13:58:29.607Z,45.47
2018-12-23T14:01:14.874Z,45.16
2018-12-23T14:04:06.567Z,44.99
2018-12-23T14:07:15.521Z,44.68
2018-12-23T14:12:50.071Z,43.42
2018-12-23T14:15:23.630Z,44.84
2018-12-23T14:17:57.336Z,44.70
2018-12-23T14:20:30.942Z,44.46
2018-12-23T14:23:05.219Z,44.41
2018-12-23T14:25:39.430Z,43.63
2018-12-23T14:28:13.093Z,43.86
2018-12-23T14:30:46.485Z,43.30
2018-12-23T14:33:19.790Z,44.06
2018-12-23T14:35:53.250Z,43.25
2018-12-23T14:38:26.411Z,43.12
2018-12-23T14:41:00.015Z,42.65
2018-12-23T14:43:34.477Z,42.54
2018-12-23T14:46:07.456Z,42.09
2018-12-23T14:48:40.631Z,41.78
2018-12-23T14:51:14.114Z,42.52
2018-12-23T14:53:47.152Z,41.17
2018-12-23T14:56:20.456Z,41.48
2018-12-23T14:58:53.564Z,41.13
2018-12-23T15:01:26.640Z,41.86
2018-12-23T15:03:59.816Z,41.86
2018-12-23T15:06:32.823Z,41.83
2018-12-23T15:09:06.651Z,41.87
2018-12-23T15:11:40.122Z,42.42
2018-12-23T15:14:13.613Z,42.15
2018-12-23T15:16:46.862Z,42.63
2018-12-23T15:19:20.145Z,43.50
2018-12-23T15:21:53.493Z,42.28
2018-12-23T15:24:26.657Z,41.79
2018-12-23T15:27:00.340Z,42.13
2018-12-23T15:29:33.504Z,42.39
2018-12-23T15:32:06.561Z,42.55
2018-12-23T15:34:39.649Z,43.10
2018-12-23T15:37:12.967Z,43.17
2018-12-23T15:39:46.239Z,42.86
2018-12-23T15:42:19.847Z,42.82
2018-12-23T15:44:53.407Z,42.86
2018-12-23T15:47:27.445Z,43.03
2018-12-23T15:50:01.120Z,43.01
2018-12-23T15:52:34.387Z,42.94
2018-12-23T15:55:08.226Z,43.14
2018-12-23T15:57:41.349Z,43.36
2018-12-23T16:00:14.446Z,43.19
2018-12-23T16:02:47.583Z,43.33
2018-12-23T16:05:21.046Z,43.62
2018-12-23T16:07:54.035Z,43.37
2018-12-23T16:10:27.114Z,43.34
2018-12-23T16:13:00.395Z,43.56
2018-12-23T16:15:33.471Z,43.91
2018-12-23T16:18:10.490Z,45.11
2018-12-23T16:20:57.673Z,44.58
2018-12-23T16:23:34.127Z,44.84
2018-12-23T16:26:13.545Z,44.38
2018-12-23T16:28:54.836Z,44.63
2018-12-23T16:31:32.630Z,45.11
2018-12-23T16:34:05.843Z,45.55
2018-12-23T16:36:39.324Z,45.27
2018-12-23T16:39:12.835Z,46.07
2018-12-23T16:41:47.890Z,46.33
2018-12-23T16:44:20.978Z,46.38
2018-12-23T16:46:54.638Z,46.82
2018-12-23T16:49:27.520Z,46.78
2018-12-23T16:52:00.858Z,47.49
2018-12-23T16:54:33.851Z,47.22
2018-12-23T16:57:06.966Z,47.44
2018-12-23T16:59:40.170Z,47.74
2018-12-23T17:02:13.434Z,48.04
2018-12-23T17:04:46.482Z,48.15
2018-12-23T17:07:19.705Z,48.34
2018-12-23T17:09:52.610Z,48.47
2018-12-23T17:12:26.659Z,48.78
2018-12-23T17:14:59.886Z,48.40
2018-12-23T17:17:33.004Z,49.50
2018-12-23T17:20:07.595Z,48.89
2018-12-23T17:22:40.842Z,49.61
2018-12-23T17:25:14.611Z,49.61
2018-12-23T17:27:48.199Z,49.62
2018-12-23T17:30:21.307Z,49.54
2018-12-23T17:32:54.606Z,49.98
2018-12-23T17:35:27.585Z,49.98
2018-12-23T17:38:00.640Z,49.74
2018-12-23T17:40:33.851Z,49.89
2018-12-23T17:43:06.881Z,50.38
2018-12-23T17:45:40.065Z,50.06
2018-12-23T17:48:13.621Z,50.28
2018-12-23T17:50:46.802Z,50.27
2018-12-23T17:53:20.337Z,50.34
2018-12-23T17:55:53.421Z,50.14
2018-12-23T17:58:26.360Z,50.26
2018-12-23T18:01:02.999Z,50.02
2018-12-23T18:03:36.251Z,50.40
2018-12-23T18:06:09.302Z,49.66
2018-12-23T18:08:42.505Z,50.23
2018-12-23T18:11:15.715Z,50.30
2018-12-23T18:13:49.040Z,50.66
2018-12-23T18:16:24.637Z,51.22
2018-12-23T18:18:56.522Z,50.69
2018-12-23T18:21:29.761Z,50.48
2018-12-23T18:24:02.805Z,50.57
2018-12-23T18:26:35.959Z,50.88
2018-12-23T18:29:09.039Z,50.97
2018-12-23T18:31:42.075Z,51.57
2018-12-23T18:34:15.232Z,50.85
2018-12-23T18:36:48.406Z,50.95
2018-12-23T18:39:21.786Z,51.05
2018-12-23T18:41:54.985Z,51.58
2018-12-23T18:44:28.006Z,51.22
2018-12-23T18:47:00.963Z,50.87
2018-12-23T18:49:34.264Z,50.82
2018-12-23T18:52:07.615Z,50.93
2018-12-23T18:54:40.859Z,50.61
2018-12-23T18:57:13.955Z,50.46
2018-12-23T18:59:47.162Z,50.74
2018-12-23T19:02:20.520Z,51.43
2018-12-23T19:04:53.579Z,50.54
2018-12-23T19:07:26.744Z,50.81
2018-12-23T19:10:00.098Z,51.14
2018-12-23T19:12:50.717Z,51.30
2018-12-23T19:15:56.810Z,51.46
2018-12-23T19:18:50.798Z,50.92
2018-12-23T19:21:49.469Z,51.02
2018-12-23T19:24:42.213Z,50.89
2018-12-23T19:31:01.442Z,51.84
2018-12-23T19:33:59.210Z,51.84
2018-12-23T19:37:00.172Z,51.40
2018-12-23T19:40:09.422Z,51.92
2018-12-23T19:43:23.670Z,51.38
2018-12-23T19:46:14.506Z,51.30
2018-12-23T19:49:02.888Z,51.82
2018-12-23T19:52:05.428Z,51.39
2018-12-23T19:58:18.761Z,51.65
2018-12-23T20:01:01.296Z,51.42
2018-12-23T20:03:52.049Z,51.16
2018-12-23T20:06:48.916Z,51.31
2018-12-23T20:14:53.012Z,51.51
2018-12-23T20:17:45.440Z,51.80
2018-12-23T20:20:48.179Z,51.52
2018-12-23T20:23:56.516Z,51.47
2018-12-23T20:26:42.124Z,52.56
2018-12-23T20:29:42.328Z,52.20
2018-12-23T20:32:43.209Z,52.96
2018-12-23T20:35:40.090Z,52.05
2018-12-23T20:42:03.483Z,52.83
2018-12-23T20:44:48.155Z,52.43
2018-12-23T20:47:38.108Z,52.62
2018-12-23T20:50:19.309Z,51.92
2018-12-23T20:53:00.717Z,51.69
2018-12-23T20:56:09.213Z,52.21
2018-12-23T21:02:37.926Z,53.35
2018-12-23T21:05:16.346Z,53.06
2018-12-23T21:08:25.272Z,52.86
2018-12-23T21:11:19.991Z,51.47
2018-12-23T21:17:34.738Z,51.44
2018-12-23T21:20:27.981Z,51.70
2018-12-23T21:23:03.756Z,51.01
2018-12-23T21:26:15.601Z,51.21
2018-12-23T21:29:22.560Z,50.79
2018-12-23T21:32:03.732Z,50.91
2018-12-23T21:35:00.561Z,50.64
2018-12-23T21:37:50.560Z,50.61
2018-12-23T21:40:50.907Z,50.91
2018-12-23T21:43:39.084Z,50.34
2018-12-23T21:46:20.797Z,50.86
2018-12-23T21:52:04.612Z,51.12
2018-12-23T21:54:43.377Z,50.97
2018-12-23T21:57:35.452Z,50.81
2018-12-23T22:00:29.471Z,50.61
2018-12-23T22:03:35.566Z,51.37
2018-12-23T22:06:54.687Z,51.16
2018-12-23T22:13:34.864Z,51.17
2018-12-23T22:22:26.081Z,51.49
2018-12-23T22:24:58.950Z,51.21
2018-12-23T22:27:31.739Z,51.42
2018-12-23T22:30:05.011Z,51.36
2018-12-23T22:32:38.232Z,51.53
2018-12-23T22:35:11.453Z,51.65
2018-12-23T22:37:44.558Z,52.17
2018-12-23T22:40:17.781Z,52.36
2018-12-23T22:42:50.922Z,51.58
2018-12-23T22:45:24.595Z,51.85
2018-12-23T22:47:57.489Z,51.98
2018-12-23T22:50:30.636Z,51.93
2018-12-23T22:53:05.091Z,52.32
2018-12-23T22:55:42.624Z,51.98
2018-12-23T22:58:16.267Z,52.00
2018-12-23T23:00:49.597Z,52.89
2018-12-23T23:03:22.574Z,52.27
2018-12-23T23:05:55.675Z,52.18
2018-12-23T23:08:29.039Z,52.11
2018-12-23T23:11:02.298Z,52.19
2018-12-23T23:13:35.601Z,52.87
2018-12-23T23:16:19.744Z,52.80
2018-12-23T23:18:53.013Z,52.69
2018-12-23T23:21:25.971Z,52.79
2018-12-23T23:23:59.049Z,54.16
2018-12-23T23:26:31.824Z,53.38
2018-12-23T23:29:04.868Z,53.64
2018-12-23T23:31:37.847Z,53.73
2018-12-23T23:34:11.302Z,53.10
2018-12-23T23:36:44.429Z,53.65
2018-12-23T23:39:17.391Z,54.04
2018-12-23T23:41:58.125Z,53.80
2018-12-23T23:44:25.116Z,53.82
2018-12-23T23:46:58.480Z,53.68
2018-12-23T23:49:31.943Z,53.66
2018-12-23T23:52:05.031Z,52.91
2018-12-23T23:54:38.078Z,52.64
2018-12-23T23:57:11.202Z,53.01
2018-12-23T23:59:44.254Z,51.67
